Time;durP1;ratioP1;P1;durP2;ratioP2;P2;SDS_P1;SDS_P2;PMS_P1;PMS_P2;Temp;Humidity;BMP_temperature;BMP_pressure;BME280_temperature;BME280_humidity;BME280_pressure;Samples;Min_cycle;Max_cycle;Signal;HPM_P1;HPM_P2
2022/01/06 00:01:22;;;;;;;;;0.00;0.00;;;;;4.20;67.08;101572.19;5052895;28;45404;-80
2022/01/06 00:03:48;;;;;;;;;1.50;1.00;;;;;3.51;66.08;101455.56;5079701;28;45555;-80
2022/01/06 00:06:13;;;;;;;;;1.00;1.00;;;;;3.67;65.77;101493.25;5074532;28;45496;-80
2022/01/06 00:08:39;;;;;;;;;2.00;2.00;;;;;4.33;65.86;101589.13;5075964;27;45504;-81
2022/01/06 00:11:07;;;;;;;;;1.00;1.00;;;;;3.62;66.23;101472.41;5080447;28;45473;-81
2022/01/06 00:13:45;;;;;;;;;1.00;1.00;;;;;4.01;65.94;101538.69;5075731;28;45467;-80
2022/01/06 00:16:24;;;;;;;;;2.25;0.00;;;;;3.68;66.68;101493.31;5060588;28;48004;-79
2022/01/06 00:24:20;;;;;;;;;1.50;1.50;;;;;4.11;65.89;101575.22;5072872;28;45442;-80
2022/01/06 00:26:45;;;;;;;;;0.75;0.75;;;;;4.28;65.83;101610.44;5074343;28;47361;-79
2022/01/06 00:29:11;;;;;;;;;2.75;2.75;;;;;4.24;66.28;101608.53;5071800;28;45509;-80
2022/01/06 00:31:37;;;;;;;;;1.75;1.75;;;;;3.65;66.31;101518.91;5071829;28;45727;-79
2022/01/06 00:34:05;;;;;;;;;3.00;2.00;;;;;4.14;66.07;101614.88;5072824;28;45473;-81
2022/01/06 00:36:30;;;;;;;;;1.75;1.75;;;;;3.44;66.89;101502.41;5074474;28;45600;-81
2022/01/06 00:38:56;;;;;;;;;2.00;2.00;;;;;4.04;66.32;101602.38;5079029;28;45423;-82
2022/01/06 00:41:22;;;;;;;;;3.75;3.00;;;;;3.93;66.25;101591.53;5078224;28;45558;-80
2022/01/06 00:43:47;;;;;;;;;2.25;2.25;;;;;4.14;66.09;101619.19;5060602;28;45602;-80
2022/01/06 00:46:12;;;;;;;;;1.00;1.00;;;;;3.93;66.24;101596.69;5070185;28;46038;-80
2022/01/06 00:48:38;;;;;;;;;1.75;1.75;;;;;3.53;66.74;101534.63;5076982;27;45466;-80
2022/01/06 00:51:03;;;;;;;;;4.50;3.00;;;;;3.53;67.55;101526.03;5080067;28;45789;-80
2022/01/06 00:53:28;;;;;;;;;2.00;2.00;;;;;4.09;67.11;101631.84;5079481;28;45521;-80
2022/01/06 00:55:54;;;;;;;;;1.00;0.00;;;;;3.16;66.77;101460.72;5074859;28;46301;-79
2022/01/06 00:58:19;;;;;;;;;1.00;1.00;;;;;4.00;66.30;101601.34;5073400;28;45914;-79
2022/01/06 01:00:45;;;;;;;;;1.00;1.00;;;;;3.74;66.56;101564.84;5070369;28;45451;-79
2022/01/06 01:03:16;;;;;;;;;0.00;0.00;;;;;3.90;67.43;101588.81;5075581;28;45675;-80
2022/01/06 01:05:43;;;;;;;;;0.50;0.50;;;;;3.35;67.39;101503.72;5067274;27;45580;-79
2022/01/06 01:08:10;;;;;;;;;0.00;0.00;;;;;3.59;66.70;101543.50;5078812;28;45502;-80
2022/01/06 01:10:37;;;;;;;;;2.25;2.25;;;;;3.98;66.76;101615.81;5074128;28;46029;-80
2022/01/06 01:13:04;;;;;;;;;1.75;1.75;;;;;4.07;66.87;101619.69;5078327;28;45505;-80
2022/01/06 01:15:32;;;;;;;;;1.50;0.25;;;;;3.90;67.44;101592.28;5052171;28;45742;-80
2022/01/06 01:18:05;;;;;;;;;0.50;0.25;;;;;3.57;66.90;101535.69;5067434;28;46277;-80
2022/01/06 01:20:32;;;;;;;;;2.00;2.00;;;;;3.58;66.83;101542.59;5077509;28;45374;-80
2022/01/06 01:22:57;;;;;;;;;1.50;0.00;;;;;3.91;67.20;101595.72;5050124;28;46552;-80
2022/01/06 01:25:23;;;;;;;;;1.75;1.00;;;;;4.12;66.81;101623.38;5076936;28;46523;-80
2022/01/06 01:27:48;;;;;;;;;0.00;0.00;;;;;3.58;67.23;101534.88;5071514;28;45608;-80
2022/01/06 01:30:14;;;;;;;;;1.00;1.00;;;;;3.59;66.92;101530.63;5076243;28;45495;-80
2022/01/06 01:32:49;;;;;;;;;0.75;0.00;;;;;3.89;66.84;101581.91;5075463;28;45563;-80
2022/01/06 01:35:15;;;;;;;;;1.00;1.00;;;;;3.80;66.78;101570.31;5077045;28;46460;-80
2022/01/06 01:37:40;;;;;;;;;0.50;0.50;;;;;3.47;67.00;101513.75;5054027;28;46066;-81
2022/01/06 01:40:09;;;;;;;;;0.25;0.25;;;;;4.18;66.96;101629.72;5067996;28;45488;-81
2022/01/06 01:42:35;;;;;;;;;0.00;0.00;;;;;4.16;66.57;101626.19;5070585;27;46054;-80
2022/01/06 01:45:02;;;;;;;;;1.00;1.00;;;;;3.64;66.69;101537.75;5077978;28;45451;-80
2022/01/06 01:47:37;;;;;;;;;1.50;1.25;;;;;3.85;66.78;101577.38;5073826;28;45422;-81
2022/01/06 01:50:18;;;;;;;;;0.25;0.25;;;;;4.02;66.94;101617.75;5076106;27;45533;-80
2022/01/06 01:52:56;;;;;;;;;0.25;0.25;;;;;4.21;66.27;101641.88;5078278;28;45443;-81
2022/01/06 01:55:32;;;;;;;;;0.00;0.00;;;;;4.04;66.55;101610.09;5077994;28;45785;-80
2022/01/06 01:57:57;;;;;;;;;1.00;1.00;;;;;4.17;67.00;101658.88;5074742;27;45567;-80
2022/01/06 02:00:26;;;;;;;;;0.00;0.00;;;;;3.62;66.76;101561.66;5077841;28;45502;-80
2022/01/06 02:02:51;;;;;;;;;1.00;1.00;;;;;4.12;67.03;101651.72;5056204;28;45587;-80
2022/01/06 02:05:25;;;;;;;;;1.75;1.00;;;;;3.98;66.40;101625.28;5076230;28;45642;-80
2022/01/06 02:07:51;;;;;;;;;1.00;1.00;;;;;4.12;67.20;101643.97;5058087;28;45496;-80
2022/01/06 02:10:19;;;;;;;;;0.00;0.00;;;;;4.00;67.09;101631.38;5076953;28;45454;-80
2022/01/06 02:12:45;;;;;;;;;1.25;1.25;;;;;3.74;66.65;101594.88;5075046;27;45534;-81
2022/01/06 02:15:11;;;;;;;;;2.00;1.00;;;;;4.04;67.29;101646.16;5076934;28;45421;-80
2022/01/06 02:17:38;;;;;;;;;1.00;1.00;;;;;3.65;66.91;101583.28;5073114;28;45461;-80
2022/01/06 02:20:06;;;;;;;;;0.00;0.00;;;;;4.03;67.29;101662.44;5069212;28;45553;-81
2022/01/06 02:22:31;;;;;;;;;4.00;1.25;;;;;3.34;67.59;101562.84;5076869;28;45570;-80
2022/01/06 02:24:57;;;;;;;;;3.00;2.00;;;;;3.79;67.58;101657.81;5057699;28;46061;-81
2022/01/06 02:27:22;;;;;;;;;2.00;1.00;;;;;3.60;67.31;101605.38;5073652;28;45513;-79
2022/01/06 02:29:51;;;;;;;;;2.00;0.00;;;;;3.59;67.40;101600.13;5073619;28;45551;-80
2022/01/06 02:32:19;;;;;;;;;1.00;1.00;;;;;3.47;67.18;101570.38;5073888;27;45505;-80
2022/01/06 02:34:47;;;;;;;;;5.00;0.75;;;;;3.83;67.42;101628.81;5076150;28;46405;-80
2022/01/06 02:37:14;;;;;;;;;0.50;0.50;;;;;3.14;67.06;101508.63;5077443;27;45626;-81
2022/01/06 02:39:41;;;;;;;;;1.25;0.00;;;;;3.51;67.44;101582.59;5078303;28;45792;-81
2022/01/06 02:42:07;;;;;;;;;3.00;0.00;;;;;3.87;67.29;101648.81;5070851;28;46284;-81
2022/01/06 02:44:33;;;;;;;;;0.00;0.00;;;;;3.76;67.25;101643.09;5076400;27;45433;-81
2022/01/06 02:46:59;;;;;;;;;1.00;1.00;;;;;3.75;67.68;101617.25;5076097;28;45548;-81
2022/01/06 02:49:24;;;;;;;;;1.75;1.00;;;;;3.48;67.23;101587.59;5076854;28;45570;-81
2022/01/06 02:51:51;;;;;;;;;0.25;0.00;;;;;3.95;67.35;101659.47;5077235;28;45658;-80
2022/01/06 02:54:18;;;;;;;;;1.75;1.25;;;;;3.42;66.97;101571.81;5073597;28;45397;-81
2022/01/06 02:56:44;;;;;;;;;1.50;0.00;;;;;3.12;67.23;101518.84;5069036;28;45543;-81
2022/01/06 02:59:10;;;;;;;;;0.25;0.25;;;;;3.54;67.53;101582.78;5066775;28;45743;-81
2022/01/06 03:01:42;;;;;;;;;2.00;2.00;;;;;3.35;67.36;101568.06;5070678;28;45422;-80
2022/01/06 03:04:08;;;;;;;;;1.75;1.75;;;;;4.05;67.68;101674.59;5046650;28;46484;-82
2022/01/06 03:06:34;;;;;;;;;2.00;2.00;;;;;3.73;67.23;101614.59;5068652;28;45525;-80
2022/01/06 03:08:59;;;;;;;;;2.75;1.00;;;;;3.61;67.12;101590.81;5078396;28;45510;-80
2022/01/06 03:11:26;;;;;;;;;1.50;1.50;;;;;4.08;67.37;101684.19;5081270;28;45607;-80
2022/01/06 03:13:54;;;;;;;;;2.00;2.00;;;;;4.01;66.96;101689.84;5077212;27;45776;-80
2022/01/06 03:16:20;;;;;;;;;5.00;3.00;;;;;3.35;67.33;101574.91;5056641;28;46117;-80
2022/01/06 03:18:45;;;;;;;;;4.00;4.00;;;;;3.12;67.18;101548.84;5069506;28;45458;-80
2022/01/06 03:21:11;;;;;;;;;2.00;2.00;;;;;4.01;66.24;101687.28;5058190;28;45590;-80
2022/01/06 03:23:37;;;;;;;;;3.25;2.00;;;;;3.11;67.13;101539.34;5079316;28;45519;-80
2022/01/06 03:26:03;;;;;;;;;3.75;3.75;;;;;3.74;67.30;101642.13;5076168;28;45602;-80
2022/01/06 03:28:28;;;;;;;;;9.25;5.25;;;;;3.89;66.65;101666.91;5080725;28;45445;-80
2022/01/06 03:30:54;;;;;;;;;7.50;4.00;;;;;3.53;67.41;101598.13;5078712;27;45617;-80
2022/01/06 03:33:19;;;;;;;;;3.75;3.75;;;;;3.85;67.09;101644.34;5081127;28;45423;-81
2022/01/06 03:35:45;;;;;;;;;2.00;2.00;;;;;3.87;66.94;101653.06;5075913;28;45520;-80
2022/01/06 03:38:10;;;;;;;;;2.00;2.00;;;;;4.18;66.54;101691.59;5061153;28;46268;-80
2022/01/06 03:40:37;;;;;;;;;3.00;3.00;;;;;4.09;67.11;101678.22;5074211;28;45552;-80
2022/01/06 03:43:02;;;;;;;;;2.75;2.75;;;;;4.19;67.21;101689.88;5077594;27;45533;-80
2022/01/06 03:45:27;;;;;;;;;2.00;2.00;;;;;3.61;66.31;101594.25;5079282;28;45443;-80
2022/01/06 03:47:53;;;;;;;;;2.25;1.00;;;;;3.65;66.90;101598.75;5076151;27;46078;-80
2022/01/06 03:50:19;;;;;;;;;1.75;1.75;;;;;3.54;66.54;101589.59;5080028;28;45591;-80
2022/01/06 03:52:45;;;;;;;;;1.00;1.00;;;;;3.74;67.09;101636.09;5071532;28;45485;-80
2022/01/06 03:55:13;;;;;;;;;1.50;1.50;;;;;4.10;66.71;101699.75;5078272;27;46403;-80
2022/01/06 03:57:39;;;;;;;;;1.00;1.00;;;;;3.88;67.09;101676.31;5076289;28;45795;-79
2022/01/06 04:00:08;;;;;;;;;1.00;1.00;;;;;3.87;66.41;101677.13;5071857;28;45744;-80
2022/01/06 04:02:34;;;;;;;;;0.00;0.00;;;;;4.03;67.48;101702.00;5057702;28;47297;-80
2022/01/06 04:05:00;;;;;;;;;1.75;1.75;;;;;3.18;66.89;101546.59;5076920;28;46376;-80
2022/01/06 04:07:26;;;;;;;;;0.00;0.00;;;;;3.62;67.06;101620.91;5055204;28;45498;-79
2022/01/06 04:09:51;;;;;;;;;1.00;0.75;;;;;3.52;66.84;101606.69;5057613;28;45831;-80
2022/01/06 04:12:16;;;;;;;;;0.00;0.00;;;;;4.09;67.15;101690.22;5075702;28;46176;-80
2022/01/06 04:14:42;;;;;;;;;0.50;0.50;;;;;4.16;66.83;101708.66;5068373;28;45457;-80
2022/01/06 04:17:07;;;;;;;;;0.75;0.75;;;;;4.16;66.33;101700.91;5072420;28;45398;-80
2022/01/06 04:19:36;;;;;;;;;5.00;1.00;;;;;4.02;66.23;101682.16;5072691;28;46268;-80
2022/01/06 04:22:02;;;;;;;;;0.50;0.50;;;;;3.81;67.13;101658.78;5050964;28;45532;-81
2022/01/06 04:24:28;;;;;;;;;4.00;1.00;;;;;3.79;66.75;101660.38;5068139;28;45564;-80
2022/01/06 04:26:53;;;;;;;;;0.00;0.00;;;;;3.23;66.69;101578.59;5059282;28;45543;-80
2022/01/06 04:29:19;;;;;;;;;1.00;1.00;;;;;3.57;67.06;101632.63;5071445;28;45667;-79
2022/01/06 04:31:44;;;;;;;;;0.00;0.00;;;;;3.97;67.99;101693.03;5056645;28;47038;-80
2022/01/06 04:34:09;;;;;;;;;1.00;1.00;;;;;3.56;67.11;101626.63;5060886;28;45722;-80
2022/01/06 04:36:35;;;;;;;;;0.00;0.00;;;;;3.43;66.64;101609.63;5077583;27;45806;-80
2022/01/06 04:39:00;;;;;;;;;1.25;0.50;;;;;3.22;67.63;101589.69;5066585;28;46288;-79
2022/01/06 04:41:25;;;;;;;;;0.75;0.75;;;;;3.23;67.52;101590.56;5071153;28;45693;-80
2022/01/06 04:43:51;;;;;;;;;1.00;1.00;;;;;3.79;67.19;101686.16;5066724;28;45548;-79
2022/01/06 04:46:19;;;;;;;;;1.75;1.75;;;;;3.88;67.23;101696.94;5076783;28;46299;-79
2022/01/06 04:48:44;;;;;;;;;0.25;0.25;;;;;3.84;66.92;101704.41;5073461;27;45544;-79
2022/01/06 04:51:10;;;;;;;;;1.00;1.00;;;;;3.41;67.49;101661.06;5081430;27;45418;-79
2022/01/06 04:53:35;;;;;;;;;0.00;0.00;;;;;3.62;67.60;101704.16;5081389;28;45347;-80
2022/01/06 04:56:01;;;;;;;;;0.00;0.00;;;;;3.60;67.46;101680.03;5081776;28;45800;-79
2022/01/06 04:58:28;;;;;;;;;0.00;0.00;;;;;3.62;67.44;101680.13;5061182;28;45365;-79
2022/01/06 05:00:53;;;;;;;;;0.00;0.00;;;;;3.53;67.79;101667.66;5079318;27;45744;-79
2022/01/06 05:03:18;;;;;;;;;0.00;0.00;;;;;3.47;67.39;101655.34;5060410;28;45944;-81
2022/01/06 05:05:44;;;;;;;;;0.50;0.50;;;;;3.76;67.90;101727.19;5059550;28;45450;-80
2022/01/06 05:08:09;;;;;;;;;0.50;0.50;;;;;3.50;67.63;101673.53;5073270;28;45457;-80
2022/01/06 05:10:35;;;;;;;;;1.50;0.75;;;;;3.22;67.17;101623.13;5079782;27;45512;-80
2022/01/06 05:13:00;;;;;;;;;2.00;2.00;;;;;3.79;67.14;101706.75;5081383;28;45479;-80
2022/01/06 05:15:26;;;;;;;;;1.75;0.75;;;;;3.91;67.71;101729.69;5059281;28;45500;-82
2022/01/06 05:17:51;;;;;;;;;0.75;0.75;;;;;3.74;67.53;101703.94;5079870;28;45422;-82
2022/01/06 05:20:19;;;;;;;;;0.00;0.00;;;;;3.49;67.60;101660.59;5082271;28;46947;-82
2022/01/06 05:22:45;;;;;;;;;1.00;1.00;;;;;3.95;67.83;101748.78;5064884;28;45457;-82
2022/01/06 05:25:12;;;;;;;;;2.00;0.25;;;;;3.55;67.51;101664.34;5061479;28;45429;-83
2022/01/06 05:27:38;;;;;;;;;0.50;0.50;;;;;3.99;67.43;101738.72;5062075;28;45415;-80
2022/01/06 05:30:05;;;;;;;;;1.00;1.00;;;;;4.01;67.23;101739.66;5073882;28;46365;-81
2022/01/06 05:32:31;;;;;;;;;2.00;0.50;;;;;4.00;67.27;101755.06;5081182;28;45488;-82
2022/01/06 05:34:56;;;;;;;;;1.00;0.00;;;;;3.99;67.86;101738.72;5061764;28;45589;-80
2022/01/06 05:37:24;;;;;;;;;2.50;1.00;;;;;3.31;66.62;101627.91;5062323;28;45413;-82
2022/01/06 05:39:49;;;;;;;;;0.00;0.00;;;;;3.99;66.82;101742.97;5075717;28;45427;-82
2022/01/06 05:42:15;;;;;;;;;1.00;0.25;;;;;3.52;66.96;101673.63;5082862;28;45366;-82
2022/01/06 05:44:41;;;;;;;;;0.25;0.25;;;;;3.91;67.65;101756.34;5083309;28;45349;-83
2022/01/06 05:47:07;;;;;;;;;1.25;1.25;;;;;3.90;67.57;101758.84;5065380;28;45510;-83
2022/01/06 05:49:33;;;;;;;;;1.00;1.00;;;;;3.83;67.92;101757.63;5069999;28;45429;-83
2022/01/06 05:51:59;;;;;;;;;1.00;0.00;;;;;3.24;67.37;101660.16;5061320;28;45674;-82
2022/01/06 05:54:24;;;;;;;;;2.00;0.75;;;;;3.47;67.70;101708.53;5070994;27;45502;-81
2022/01/06 05:56:50;;;;;;;;;0.00;0.00;;;;;3.34;67.14;101691.53;5079682;28;45531;-84
2022/01/06 05:59:15;;;;;;;;;0.00;0.00;;;;;3.17;67.35;101676.97;5078520;28;45551;-84
2022/01/06 06:01:40;;;;;;;;;1.00;1.00;;;;;2.98;67.88;101641.63;5077894;27;45488;-82
2022/01/06 06:04:06;;;;;;;;;2.00;2.00;;;;;2.95;67.39;101638.88;5058433;28;45446;-79
2022/01/06 06:06:31;;;;;;;;;1.75;1.00;;;;;3.53;67.32;101745.75;5081235;28;45412;-80
2022/01/06 06:08:57;;;;;;;;;3.00;0.25;;;;;2.66;67.83;101625.28;5079769;28;45664;-78
2022/01/06 06:11:22;;;;;;;;;2.75;1.00;;;;;2.62;67.53;101623.34;5069027;28;45543;-80
2022/01/06 06:13:48;;;;;;;;;1.00;1.00;;;;;3.61;67.88;101786.53;5060975;28;45640;-80
2022/01/06 06:16:13;;;;;;;;;0.00;0.00;;;;;3.33;67.31;101723.22;5051219;28;46316;-79
2022/01/06 06:18:38;;;;;;;;;5.25;1.00;;;;;3.32;67.60;101722.34;5071801;28;45745;-78
2022/01/06 06:21:06;;;;;;;;;2.00;2.00;;;;;3.27;67.87;101711.78;5071858;28;45327;-81
2022/01/06 06:23:31;;;;;;;;;4.00;2.25;;;;;3.78;67.37;101782.25;5069863;28;45306;-81
2022/01/06 06:25:57;;;;;;;;;2.75;2.75;;;;;3.65;67.86;101749.81;5063181;28;45450;-81
2022/01/06 06:28:22;;;;;;;;;1.75;1.50;;;;;3.36;67.61;101695.06;5080494;28;45397;-82
2022/01/06 06:30:47;;;;;;;;;1.25;1.25;;;;;3.57;67.72;101733.94;5057520;28;45304;-81
2022/01/06 06:33:13;;;;;;;;;4.00;1.50;;;;;3.98;67.92;101796.19;5075914;28;45356;-80
2022/01/06 06:35:38;;;;;;;;;1.00;1.00;;;;;3.54;67.69;101724.38;5081193;28;45907;-80
2022/01/06 06:38:04;;;;;;;;;1.75;1.00;;;;;3.62;67.22;101729.06;5082310;28;45527;-81
2022/01/06 06:40:30;;;;;;;;;1.00;1.00;;;;;3.65;67.44;101726.66;5052984;28;45372;-86
2022/01/06 06:42:56;;;;;;;;;2.25;1.00;;;;;3.68;67.47;101729.38;5045602;28;45474;-84
2022/01/06 06:45:23;;;;;;;;;3.25;0.75;;;;;3.88;67.21;101763.03;5080345;28;45482;-82
2022/01/06 06:47:49;;;;;;;;;1.25;1.25;;;;;3.73;66.72;101730.50;5061599;28;45647;-81
2022/01/06 06:50:16;;;;;;;;;4.00;1.75;;;;;4.13;66.61;101808.09;5061673;28;45371;-82
2022/01/06 06:52:43;;;;;;;;;2.00;2.00;;;;;3.21;67.25;101634.25;5059658;28;45707;-80
2022/01/06 06:55:09;;;;;;;;;0.00;0.00;;;;;4.21;66.76;101811.09;5065724;28;45855;-84
2022/01/06 06:57:35;;;;;;;;;1.00;1.00;;;;;3.99;67.24;101767.06;5072150;28;45498;-79
2022/01/06 07:00:04;;;;;;;;;2.00;1.00;;;;;4.25;67.23;101808.75;5077329;28;45413;-79
2022/01/06 07:02:32;;;;;;;;;0.00;0.00;;;;;4.16;67.15;101785.06;5076725;28;45953;-79
2022/01/06 07:04:59;;;;;;;;;1.00;1.00;;;;;3.87;67.05;101748.38;5080793;28;45394;-82
2022/01/06 07:07:25;;;;;;;;;0.00;0.00;;;;;4.15;67.32;101803.94;5064759;28;45451;-81
2022/01/06 07:09:50;;;;;;;;;0.75;0.75;;;;;4.11;66.66;101802.91;5072325;28;45409;-83
2022/01/06 07:12:16;;;;;;;;;0.75;0.75;;;;;4.18;67.00;101815.31;5072931;28;45454;-80
2022/01/06 07:14:42;;;;;;;;;1.00;1.00;;;;;3.99;68.02;101785.09;5072781;28;45400;-78
2022/01/06 07:17:07;;;;;;;;;2.50;1.50;;;;;4.08;67.19;101782.13;5078695;28;46350;-78
2022/01/06 07:19:32;;;;;;;;;0.00;0.00;;;;;4.22;66.98;101808.59;5068135;28;45570;-77
2022/01/06 07:21:58;;;;;;;;;1.00;1.00;;;;;3.98;67.31;101761.84;5075270;28;45487;-78
2022/01/06 07:24:23;;;;;;;;;1.00;0.00;;;;;4.10;66.86;101793.38;5077277;28;45505;-78
2022/01/06 07:26:49;;;;;;;;;1.50;1.50;;;;;3.82;66.52;101749.84;5066961;28;45967;-78
2022/01/06 07:29:15;;;;;;;;;0.75;0.75;;;;;4.06;66.88;101794.03;5069666;28;45364;-81
2022/01/06 07:31:40;;;;;;;;;1.00;1.00;;;;;4.21;67.25;101818.81;5072484;28;45459;-78
2022/01/06 07:34:06;;;;;;;;;1.00;1.00;;;;;4.19;66.79;101813.59;5051102;28;45381;-78
2022/01/06 07:36:31;;;;;;;;;0.00;0.00;;;;;4.10;66.64;101792.50;5074944;28;45812;-76
2022/01/06 07:38:57;;;;;;;;;1.50;0.75;;;;;4.10;66.95;101785.66;5069364;28;45263;-77
2022/01/06 07:41:22;;;;;;;;;0.00;0.00;;;;;4.26;67.46;101801.94;5078344;28;45334;-77
2022/01/06 07:43:47;;;;;;;;;3.25;1.75;;;;;4.33;67.10;101824.63;5066438;28;45403;-78
2022/01/06 07:46:13;;;;;;;;;1.00;1.00;;;;;4.23;66.62;101830.13;5071558;28;45388;-78
2022/01/06 07:48:48;;;;;;;;;0.50;0.50;;;;;4.13;66.81;101808.09;5076843;28;45475;-78
2022/01/06 07:51:14;;;;;;;;;0.75;0.75;;;;;4.19;66.76;101823.91;5079921;28;45295;-78
2022/01/06 07:53:39;;;;;;;;;1.00;1.00;;;;;4.02;66.52;101790.38;5071399;28;45378;-78
2022/01/06 07:56:05;;;;;;;;;1.25;1.00;;;;;4.14;66.57;101797.88;5066920;28;45752;-80
2022/01/06 07:58:30;;;;;;;;;0.00;0.00;;;;;4.41;66.40;101832.78;5069271;28;45794;-80
2022/01/06 08:00:56;;;;;;;;;0.75;0.75;;;;;4.22;67.45;101793.13;5058801;28;45455;-80
2022/01/06 08:03:21;;;;;;;;;3.00;1.00;;;;;4.36;66.90;101821.31;5078902;28;45569;-81
2022/01/06 08:05:47;;;;;;;;;0.00;0.00;;;;;4.13;65.89;101775.50;5069005;28;46175;-79
2022/01/06 08:08:12;;;;;;;;;1.00;1.00;;;;;4.40;65.94;101813.84;5062608;28;45475;-78
2022/01/06 08:10:37;;;;;;;;;0.00;0.00;;;;;4.43;66.54;101807.94;5056572;28;45462;-80
2022/01/06 08:13:03;;;;;;;;;1.00;1.00;;;;;4.49;66.31;101820.25;5082528;28;45373;-80
2022/01/06 08:15:28;;;;;;;;;1.00;1.00;;;;;4.40;66.17;101798.38;5057648;28;48164;-79
2022/01/06 08:17:54;;;;;;;;;0.75;0.25;;;;;4.43;66.17;101813.09;5075023;28;45735;-79
2022/01/06 08:20:19;;;;;;;;;1.00;1.00;;;;;4.23;66.98;101792.31;5075609;28;45744;-80
2022/01/06 08:22:44;;;;;;;;;0.25;0.25;;;;;4.37;66.56;101831.72;5060499;28;45648;-80
2022/01/06 08:25:10;;;;;;;;;1.00;1.00;;;;;4.27;66.58;101812.31;5075396;28;45401;-79
2022/01/06 08:27:35;;;;;;;;;1.75;1.00;;;;;4.09;67.04;101794.19;5071664;28;45351;-78
2022/01/06 08:30:49;;;;;;;;;3.00;1.00;;;;;4.30;66.11;101846.00;5056819;28;45949;-80
2022/01/06 08:33:15;;;;;;;;;1.50;1.50;;;;;3.44;67.09;101716.06;5067814;28;45459;-80
2022/01/06 08:35:41;;;;;;;;;2.00;0.00;;;;;4.25;66.77;101849.09;5080080;28;45300;-79
2022/01/06 08:38:07;;;;;;;;;1.25;0.00;;;;;3.89;67.02;101788.00;5077023;28;45386;-80
2022/01/06 08:40:32;;;;;;;;;0.00;0.00;;;;;4.20;66.91;101828.28;5075621;28;45269;-80
2022/01/06 08:42:58;;;;;;;;;1.00;1.00;;;;;4.24;66.45;101821.56;5080786;28;45347;-80
2022/01/06 08:45:23;;;;;;;;;1.00;1.00;;;;;4.35;66.00;101843.63;5054306;28;47238;-81
2022/01/06 08:47:49;;;;;;;;;0.50;0.50;;;;;4.21;66.36;101830.03;5064965;28;45930;-80
2022/01/06 08:50:15;;;;;;;;;0.25;0.25;;;;;4.06;66.77;101796.59;5068859;28;45447;-79
2022/01/06 08:52:41;;;;;;;;;0.00;0.00;;;;;4.48;66.05;101863.22;5069897;28;45478;-79
2022/01/06 08:55:07;;;;;;;;;2.00;0.50;;;;;4.53;66.41;101853.13;5071359;28;45553;-80
2022/01/06 08:57:33;;;;;;;;;0.00;0.00;;;;;4.51;66.40;101847.91;5068253;28;45536;-78
2022/01/06 09:00:00;;;;;;;;;0.00;0.00;;;;;4.37;65.91;101810.19;5062256;28;45591;-79
2022/01/06 09:02:26;;;;;;;;;1.50;1.00;;;;;4.46;66.12;101839.03;5075095;28;45481;-79
2022/01/06 09:04:53;;;;;;;;;2.00;2.00;;;;;4.60;66.35;101844.03;5080470;28;46319;-79
2022/01/06 09:07:18;;;;;;;;;1.50;0.00;;;;;4.54;66.60;101819.69;5068213;28;45476;-80
2022/01/06 09:09:44;;;;;;;;;1.00;1.00;;;;;4.86;66.26;101865.97;5076651;28;45418;-81
2022/01/06 09:12:16;;;;;;;;;2.00;1.00;;;;;4.82;66.11;101843.41;5062993;28;45430;-81
2022/01/06 09:14:43;;;;;;;;;0.25;0.25;;;;;5.04;65.59;101858.28;5074527;28;46436;-80
2022/01/06 09:17:08;;;;;;;;;0.75;0.75;;;;;4.99;66.01;101858.88;5081116;28;45370;-80
2022/01/06 09:19:34;;;;;;;;;2.00;1.75;;;;;5.07;65.39;101873.03;5073883;28;45765;-82
2022/01/06 09:21:59;;;;;;;;;2.00;2.00;;;;;5.04;65.54;101873.78;5080996;28;45596;-82
2022/01/06 09:24:25;;;;;;;;;1.25;1.25;;;;;4.54;65.47;101769.81;5069596;28;46476;-84
2022/01/06 09:26:50;;;;;;;;;2.00;2.00;;;;;4.88;65.68;101804.13;5073015;28;45499;-82
2022/01/06 09:29:15;;;;;;;;;1.50;1.50;;;;;5.22;65.46;101861.69;5061637;28;45403;-83
2022/01/06 09:31:41;;;;;;;;;1.00;1.00;;;;;4.28;64.96;101707.50;5059880;28;45427;-80
2022/01/06 09:34:08;;;;;;;;;0.25;0.25;;;;;4.93;65.18;101831.94;5084457;28;45525;-80
2022/01/06 09:36:34;;;;;;;;;3.00;3.00;;;;;4.84;65.24;101820.28;5082314;28;45347;-84
2022/01/06 09:39:01;;;;;;;;;2.25;0.50;;;;;5.21;65.65;101873.72;5075953;28;45406;-81
2022/01/06 09:41:27;;;;;;;;;2.00;2.00;;;;;4.86;65.53;101810.91;5075252;28;45377;-83
2022/01/06 09:43:57;;;;;;;;;1.25;1.25;;;;;5.00;65.53;101848.63;5080000;28;46766;-81
2022/01/06 09:46:23;;;;;;;;;0.75;0.75;;;;;4.39;65.12;101742.44;5068824;28;45568;-80
2022/01/06 09:48:50;;;;;;;;;2.75;2.50;;;;;4.87;65.30;101826.47;5068951;28;45810;-80
2022/01/06 09:51:16;;;;;;;;;0.00;0.00;;;;;4.95;64.85;101824.28;5081051;28;45687;-80
2022/01/06 09:53:42;;;;;;;;;4.50;2.25;;;;;5.37;65.58;101889.94;5051570;28;46361;-81
2022/01/06 09:56:09;;;;;;;;;1.00;1.00;;;;;4.93;64.88;101828.44;5081861;28;45337;-82
2022/01/06 09:58:34;;;;;;;;;0.75;0.75;;;;;5.28;64.80;101872.31;5073475;28;45610;-80
2022/01/06 10:01:00;;;;;;;;;1.00;0.00;;;;;5.08;65.12;101848.97;5073018;28;45492;-79
2022/01/06 10:03:37;;;;;;;;;2.00;2.00;;;;;5.20;64.46;101867.66;5066468;28;46452;-80
2022/01/06 10:06:25;;;;;;;;;1.00;1.00;;;;;5.45;65.03;101906.69;5077585;28;45515;-79
2022/01/06 10:09:04;;;;;;;;;1.00;1.00;;;;;5.00;64.87;101815.06;5079596;28;45437;-81
2022/01/06 10:11:34;;;;;;;;;1.00;1.00;;;;;5.19;64.55;101840.09;5049525;28;45433;-84
2022/01/06 10:14:11;;;;;;;;;1.00;1.00;;;;;5.21;64.62;101840.16;5077764;28;45383;-81
2022/01/06 10:16:48;;;;;;;;;3.50;3.50;;;;;5.53;64.53;101902.81;5070359;28;45524;-80
2022/01/06 10:19:15;;;;;;;;;0.75;0.75;;;;;5.53;64.66;101902.81;5066010;28;45963;-80
2022/01/06 10:21:43;;;;;;;;;1.00;1.00;;;;;5.49;64.63;101889.66;5067873;28;45408;-80
2022/01/06 10:24:12;;;;;;;;;1.25;1.25;;;;;5.53;64.45;101900.22;5065299;28;45810;-80
2022/01/06 10:26:50;;;;;;;;;0.00;0.00;;;;;5.47;64.28;101876.66;5069040;28;45432;-81
2022/01/06 10:29:17;;;;;;;;;0.75;0.75;;;;;4.82;64.11;101753.13;5070545;28;45393;-81
2022/01/06 10:31:43;;;;;;;;;3.75;2.00;;;;;5.49;64.22;101856.97;5068397;28;45845;-77
2022/01/06 10:34:08;;;;;;;;;2.50;1.00;;;;;5.20;64.47;101812.56;5070971;28;45761;-80
2022/01/06 10:36:36;;;;;;;;;1.75;1.75;;;;;5.68;64.01;101887.16;5073654;28;45756;-79
2022/01/06 10:39:06;;;;;;;;;3.00;2.00;;;;;5.76;63.77;101902.13;5079705;28;45414;-80
2022/01/06 10:41:31;;;;;;;;;1.75;1.75;;;;;5.67;63.77;101895.69;5051829;28;45808;-80
2022/01/06 10:43:59;;;;;;;;;0.50;0.25;;;;;5.75;63.47;101903.81;5075715;28;46568;-81
2022/01/06 10:46:44;;;;;;;;;3.50;2.25;;;;;5.73;64.03;101899.41;5077607;28;45471;-80
2022/01/06 10:49:17;;;;;;;;;4.00;3.25;;;;;5.39;63.53;101828.94;5067290;28;45366;-80
2022/01/06 10:51:45;;;;;;;;;2.00;2.00;;;;;5.65;63.29;101858.59;5069560;28;45557;-79
2022/01/06 10:54:14;;;;;;;;;0.50;0.50;;;;;5.66;62.78;101868.09;5073417;28;46560;-79
2022/01/06 10:56:40;;;;;;;;;3.50;2.00;;;;;5.80;63.44;101884.28;5071203;28;45520;-78
2022/01/06 10:59:06;;;;;;;;;1.00;1.00;;;;;5.66;63.20;101852.59;5072889;28;45670;-79
2022/01/06 11:01:34;;;;;;;;;3.00;3.00;;;;;5.92;63.52;101886.53;5066799;28;45503;-79
2022/01/06 11:03:59;;;;;;;;;1.00;1.00;;;;;5.55;63.20;101827.97;5074858;28;45414;-79
2022/01/06 11:06:24;;;;;;;;;2.00;1.50;;;;;5.80;62.94;101842.03;5077460;28;45718;-79
2022/01/06 11:08:51;;;;;;;;;1.00;1.00;;;;;5.96;62.77;101856.53;5069448;28;45455;-81
2022/01/06 11:11:43;;;;;;;;;1.75;1.75;;;;;6.06;63.07;101850.09;5057947;28;45657;-81
2022/01/06 11:14:14;;;;;;;;;1.75;0.75;;;;;6.18;62.99;101854.94;5078325;28;46254;-79
2022/01/06 11:16:40;;;;;;;;;1.75;1.00;;;;;6.17;62.80;101861.84;5072503;28;45845;-80
2022/01/06 11:19:08;;;;;;;;;0.00;0.00;;;;;6.21;62.93;101852.50;5060196;28;45416;-80
2022/01/06 11:21:40;;;;;;;;;1.00;1.00;;;;;6.06;62.99;101840.66;5073319;28;45812;-81
2022/01/06 11:24:15;;;;;;;;;1.00;0.25;;;;;6.29;62.77;101853.75;5077732;28;46938;-78
2022/01/06 11:26:56;;;;;;;;;2.00;2.00;;;;;6.44;62.45;101847.47;5078320;28;45364;-77
2022/01/06 11:29:27;;;;;;;;;0.25;0.00;;;;;6.32;62.33;101781.47;5084830;28;45428;-81
2022/01/06 11:31:53;;;;;;;;;1.00;1.00;;;;;6.78;61.30;101829.91;5079703;28;45361;-77
2022/01/06 11:34:20;;;;;;;;;2.00;1.00;;;;;6.71;60.95;101823.59;5069944;28;45859;-80
2022/01/06 11:36:49;;;;;;;;;2.75;1.00;;;;;6.58;61.32;101786.84;5082077;28;45647;-80
2022/01/06 11:39:29;;;;;;;;;1.00;1.00;;;;;6.65;60.92;101831.97;5076349;28;45440;-79